Time;durP1;ratioP1;P1;durP2;ratioP2;P2;SDS_P1;SDS_P2;PMS_P1;PMS_P2;Temp;Humidity;BMP_temperature;BMP_pressure;BME280_temperature;BME280_humidity;BME280_pressure;Samples;Min_cycle;Max_cycle;Signal;HPM_P1;HPM_P2
2023/08/30 00:01:58;;;;;;;3.50;2.50;;;20.90;99.90;;;;;;4948486;29;20505;-94
2023/08/30 00:04:29;;;;;;;5.18;2.75;;;20.90;99.90;;;;;;4958380;29;20204;-94
2023/08/30 00:07:00;;;;;;;3.50;2.60;;;21.10;99.90;;;;;;4957710;29;20306;-93
2023/08/30 00:09:31;;;;;;;5.70;2.97;;;21.20;99.90;;;;;;4956480;29;20670;-93
2023/08/30 00:12:05;;;;;;;6.18;2.72;;;21.30;99.90;;;;;;4953256;29;20210;-95
2023/08/30 00:14:36;;;;;;;5.32;2.78;;;21.40;99.90;;;;;;4936606;29;20208;-94
2023/08/30 00:17:07;;;;;;;2.95;2.47;;;21.50;99.90;;;;;;4936743;29;20205;-93
2023/08/30 00:19:40;;;;;;;3.20;2.15;;;21.60;99.90;;;;;;4947656;29;20211;-92
2023/08/30 00:22:12;;;;;;;6.38;2.70;;;21.70;99.90;;;;;;4950614;29;20196;-94
2023/08/30 00:24:44;;;;;;;7.15;2.60;;;21.90;99.90;;;;;;4952250;29;20718;-95
2023/08/30 00:27:20;;;;;;;3.58;2.42;;;22.00;99.90;;;;;;4952058;28;20232;-93
2023/08/30 00:29:51;;;;;;;3.72;2.28;;;22.10;99.90;;;;;;4951257;28;20210;-94
2023/08/30 00:32:22;;;;;;;5.07;2.30;;;22.10;99.90;;;;;;4952384;28;20223;-94
2023/08/30 00:34:55;;;;;;;4.72;2.00;;;22.40;99.90;;;;;;4951705;28;20199;-93
2023/08/30 00:37:27;;;;;;;5.80;1.90;;;22.50;99.90;;;;;;4950553;29;20721;-95
2023/08/30 00:39:59;;;;;;;3.55;1.75;;;22.70;99.90;;;;;;4952338;29;20219;-94
2023/08/30 00:42:36;;;;;;;2.35;1.50;;;22.90;99.90;;;;;;4960338;28;20232;-95
2023/08/30 00:45:08;;;;;;;2.50;1.38;;;23.00;96.80;;;;;;4954835;28;20200;-93
2023/08/30 00:47:40;;;;;;;2.13;1.40;;;23.30;95.60;;;;;;4949189;29;20739;-94
2023/08/30 00:50:12;;;;;;;2.50;1.70;;;23.30;94.50;;;;;;4952693;29;20200;-94
2023/08/30 00:52:43;;;;;;;1.88;1.50;;;23.40;94.10;;;;;;4938854;29;20309;-94
2023/08/30 00:55:15;;;;;;;4.55;1.48;;;23.50;92.80;;;;;;4929350;29;20202;-93
2023/08/30 00:57:49;;;;;;;1.70;1.40;;;23.60;92.30;;;;;;4932901;29;20192;-94
2023/08/30 01:00:21;;;;;;;2.38;1.35;;;23.70;91.60;;;;;;4941265;29;20192;-95
2023/08/30 01:02:52;;;;;;;1.98;1.38;;;23.80;89.20;;;;;;4918403;29;20201;-95
2023/08/30 01:05:24;;;;;;;1.38;1.27;;;23.90;88.00;;;;;;4922665;29;20216;-95
2023/08/30 01:08:04;;;;;;;2.90;1.55;;;24.10;86.50;;;;;;4921631;29;20225;-96
2023/08/30 01:10:47;;;;;;;3.25;1.50;;;24.20;88.00;;;;;;4922230;29;20209;-96
2023/08/30 01:13:23;;;;;;;3.65;1.30;;;24.30;85.00;;;;;;4904548;29;20197;-95
2023/08/30 01:15:57;;;;;;;1.35;1.25;;;24.30;82.50;;;;;;4929382;29;20326;-94
2023/08/30 01:18:33;;;;;;;3.10;1.30;;;24.50;81.90;;;;;;4922524;29;20193;-96
2023/08/30 01:21:07;;;;;;;2.05;1.25;;;24.60;77.50;;;;;;4923794;29;20205;-95
2023/08/30 01:23:51;;;;;;;2.25;1.20;;;24.70;78.80;;;;;;4904105;29;20201;-96
2023/08/30 01:26:29;;;;;;;1.67;1.10;;;24.80;78.40;;;;;;4919543;29;20225;-95
2023/08/30 01:29:03;;;;;;;1.92;1.20;;;24.80;76.90;;;;;;4924606;29;20205;-93
2023/08/30 01:31:36;;;;;;;1.85;1.33;;;24.90;75.20;;;;;;4936200;29;20228;-91
2023/08/30 01:34:07;;;;;;;1.42;1.17;;;25.00;72.90;;;;;;4916855;29;20209;-87
2023/08/30 01:36:39;;;;;;;1.45;1.23;;;24.90;72.80;;;;;;4921615;29;20205;-87
2023/08/30 01:39:11;;;;;;;1.55;1.40;;;25.00;73.70;;;;;;4917352;29;20203;-86
2023/08/30 01:41:42;;;;;;;2.67;1.20;;;25.10;75.20;;;;;;4916991;29;20684;-85
2023/08/30 01:44:17;;;;;;;3.80;1.40;;;25.20;72.60;;;;;;4918136;29;20225;-84
2023/08/30 01:46:49;;;;;;;1.67;1.30;;;25.30;72.40;;;;;;4931372;29;20228;-85
2023/08/30 01:49:20;;;;;;;1.50;1.30;;;25.40;72.20;;;;;;4924657;29;20193;-88
2023/08/30 01:51:52;;;;;;;1.80;1.20;;;25.50;71.10;;;;;;4917795;29;20197;-87
2023/08/30 01:54:23;;;;;;;2.47;1.20;;;25.50;70.80;;;;;;4932424;29;20232;-87
2023/08/30 01:56:54;;;;;;;3.45;1.30;;;25.60;70.80;;;;;;4942377;29;20224;-87
2023/08/30 01:59:27;;;;;;;2.42;1.10;;;25.60;71.10;;;;;;4937529;29;20215;-85
2023/08/30 02:01:58;;;;;;;2.78;1.40;;;25.70;69.70;;;;;;4942343;29;20466;-86
2023/08/30 02:04:28;;;;;;;3.70;1.10;;;25.80;69.70;;;;;;4938604;29;20202;-86
2023/08/30 02:07:03;;;;;;;2.17;1.15;;;25.80;70.40;;;;;;4946476;29;20361;-89
2023/08/30 02:09:41;;;;;;;2.67;1.35;;;25.80;69.20;;;;;;4942953;29;20242;-86
2023/08/30 02:12:16;;;;;;;1.75;1.10;;;25.90;69.20;;;;;;4939962;29;20240;-85
2023/08/30 02:14:50;;;;;;;1.48;1.20;;;26.00;67.30;;;;;;4936145;29;20636;-87
2023/08/30 02:17:22;;;;;;;1.35;1.10;;;26.00;65.80;;;;;;4935472;29;20214;-86
2023/08/30 02:19:53;;;;;;;1.83;1.10;;;26.00;67.50;;;;;;4936050;29;20193;-86
2023/08/30 02:22:24;;;;;;;1.35;1.25;;;26.00;67.10;;;;;;4943574;29;20200;-87
2023/08/30 02:24:55;;;;;;;1.30;1.15;;;26.20;68.90;;;;;;4939757;29;20205;-86
2023/08/30 02:27:26;;;;;;;3.15;1.20;;;26.30;66.70;;;;;;4954049;29;20223;-86
2023/08/30 02:29:59;;;;;;;1.85;1.10;;;26.40;65.00;;;;;;4950549;29;20597;-86
2023/08/30 02:32:29;;;;;;;2.40;1.15;;;26.40;65.20;;;;;;4952670;29;20200;-85
2023/08/30 02:35:01;;;;;;;2.83;1.20;;;26.40;63.00;;;;;;4941494;28;20205;-86
2023/08/30 02:37:31;;;;;;;3.90;1.30;;;26.50;64.80;;;;;;4935623;29;20247;-86
2023/08/30 02:40:02;;;;;;;2.35;1.05;;;26.60;63.80;;;;;;4934535;29;20208;-86
2023/08/30 02:42:33;;;;;;;2.83;1.40;;;26.60;62.70;;;;;;4951638;29;20204;-86
2023/08/30 02:45:06;;;;;;;2.88;1.10;;;26.70;63.00;;;;;;4954279;29;20572;-87
2023/08/30 02:47:37;;;;;;;2.13;1.27;;;26.70;63.70;;;;;;4938776;29;20232;-87
2023/08/30 02:50:08;;;;;;;1.30;1.20;;;26.80;62.80;;;;;;4943722;29;20207;-88
2023/08/30 02:52:39;;;;;;;1.30;1.20;;;26.80;62.00;;;;;;4939694;29;20664;-87
2023/08/30 02:55:10;;;;;;;1.65;1.20;;;26.90;62.90;;;;;;4953877;29;20220;-89
2023/08/30 02:57:41;;;;;;;2.30;1.20;;;27.00;62.40;;;;;;4952885;29;20294;-86
2023/08/30 03:00:17;;;;;;;1.20;1.10;;;27.10;61.90;;;;;;4945258;29;20200;-90
2023/08/30 03:02:50;;;;;;;1.85;1.10;;;27.10;60.00;;;;;;4954703;29;20210;-86
2023/08/30 03:05:21;;;;;;;1.25;1.10;;;27.10;59.70;;;;;;4944626;29;20196;-90
2023/08/30 03:07:52;;;;;;;1.63;1.00;;;27.20;58.80;;;;;;4938369;29;20227;-87
2023/08/30 03:10:23;;;;;;;1.08;0.82;;;27.20;59.00;;;;;;4953416;29;20268;-86
2023/08/30 03:12:54;;;;;;;1.25;1.05;;;27.30;57.70;;;;;;4954747;29;20219;-88
2023/08/30 03:15:26;;;;;;;1.45;1.02;;;27.30;57.40;;;;;;4949509;28;20208;-88
2023/08/30 03:17:57;;;;;;;3.10;1.20;;;27.30;57.00;;;;;;4939338;29;20719;-86
2023/08/30 03:20:28;;;;;;;1.13;1.00;;;27.50;57.30;;;;;;4934663;29;20575;-86
2023/08/30 03:23:00;;;;;;;0.82;0.82;;;27.60;56.90;;;;;;4934449;29;20204;-86
2023/08/30 03:25:33;;;;;;;1.40;1.08;;;27.70;55.50;;;;;;4938440;29;20200;-86
2023/08/30 03:28:05;;;;;;;2.88;1.05;;;27.70;55.20;;;;;;4943424;29;20231;-86
2023/08/30 03:30:39;;;;;;;3.17;1.20;;;27.70;54.60;;;;;;4945074;29;20201;-87
2023/08/30 03:33:10;;;;;;;1.42;1.00;;;27.80;53.50;;;;;;4943572;29;20604;-89
2023/08/30 03:35:41;;;;;;;1.10;1.00;;;27.70;52.70;;;;;;4940550;29;20309;-86
2023/08/30 03:38:12;;;;;;;1.88;1.17;;;27.70;52.20;;;;;;4952787;29;20211;-85
2023/08/30 03:40:46;;;;;;;4.43;1.13;;;27.70;52.20;;;;;;4949767;29;20197;-88
2023/08/30 03:43:16;;;;;;;1.42;0.95;;;27.70;51.80;;;;;;4934850;29;20233;-86
2023/08/30 03:45:50;;;;;;;1.45;1.20;;;27.60;51.80;;;;;;4938229;29;20560;-87
2023/08/30 03:48:21;;;;;;;1.00;0.90;;;27.70;51.60;;;;;;4949605;29;20225;-85
2023/08/30 03:50:52;;;;;;;1.45;0.93;;;27.70;51.40;;;;;;4960643;29;20215;-86
2023/08/30 03:53:23;;;;;;;3.15;0.93;;;27.50;51.50;;;;;;4979337;28;20299;-85
2023/08/30 03:55:53;;;;;;;1.45;1.10;;;27.40;51.50;;;;;;4950106;28;20223;-86
2023/08/30 03:58:24;;;;;;;2.40;0.90;;;27.30;50.80;;;;;;4935295;28;20192;-86
2023/08/30 04:00:57;;;;;;;1.35;1.00;;;27.20;50.40;;;;;;4934589;29;20209;-86
2023/08/30 04:03:28;;;;;;;1.88;1.10;;;27.00;50.20;;;;;;4939180;29;20200;-86
2023/08/30 04:06:00;;;;;;;1.83;0.80;;;26.80;51.00;;;;;;4950374;29;20200;-86
2023/08/30 04:08:31;;;;;;;1.63;0.90;;;26.60;50.40;;;;;;4956672;29;20223;-87
2023/08/30 04:11:01;;;;;;;1.23;1.00;;;26.40;51.10;;;;;;4951293;29;20208;-88
2023/08/30 04:13:32;;;;;;;0.98;0.90;;;26.30;51.60;;;;;;4951900;29;20307;-88
2023/08/30 04:16:05;;;;;;;1.80;1.15;;;26.30;52.50;;;;;;4954470;29;20242;-86
2023/08/30 04:18:36;;;;;;;4.82;1.20;;;26.10;53.00;;;;;;4945576;29;20553;-87
2023/08/30 04:21:08;;;;;;;2.10;1.30;;;26.00;53.20;;;;;;4953571;29;20203;-88
2023/08/30 04:23:39;;;;;;;1.45;0.90;;;26.00;52.80;;;;;;4953196;29;20204;-87
2023/08/30 04:26:10;;;;;;;2.13;1.00;;;25.90;52.50;;;;;;4953355;29;20200;-87
2023/08/30 04:28:41;;;;;;;5.07;2.58;;;25.90;52.90;;;;;;4955411;28;20746;-88
2023/08/30 04:31:13;;;;;;;4.95;2.58;;;25.90;62.80;;;;;;4955081;29;20196;-88
2023/08/30 04:33:44;;;;;;;5.93;2.75;;;25.60;68.60;;;;;;4953602;29;20570;-87
2023/08/30 04:36:16;;;;;;;8.88;2.90;;;25.30;73.00;;;;;;4953836;29;20200;-88
2023/08/30 04:38:47;;;;;;;6.15;2.78;;;25.10;78.50;;;;;;4945287;29;20200;-86
2023/08/30 04:41:18;;;;;;;5.85;2.92;;;24.90;83.60;;;;;;4938335;29;20547;-86
2023/08/30 04:43:48;;;;;;;3.90;2.63;;;24.70;89.50;;;;;;4938521;29;20200;-87
2023/08/30 04:46:21;;;;;;;5.18;2.67;;;24.50;91.50;;;;;;4937801;29;20219;-88
2023/08/30 04:48:52;;;;;;;4.88;2.53;;;24.40;93.60;;;;;;4937140;29;20224;-87
2023/08/30 04:51:22;;;;;;;4.55;2.55;;;24.20;95.60;;;;;;4938140;29;20193;-86
2023/08/30 04:53:53;;;;;;;4.72;2.67;;;24.00;97.40;;;;;;4937883;29;20236;-85
2023/08/30 04:56:24;;;;;;;5.68;2.90;;;23.90;98.40;;;;;;4959511;28;20198;-87
2023/08/30 04:58:57;;;;;;;5.60;2.53;;;23.90;99.70;;;;;;4962625;29;20206;-88
2023/08/30 05:01:29;;;;;;;3.63;2.58;;;23.70;99.90;;;;;;4957944;29;20878;-88
2023/08/30 05:04:00;;;;;;;3.78;2.50;;;23.60;99.90;;;;;;4956341;29;20228;-86
2023/08/30 05:06:31;;;;;;;3.95;2.83;;;23.50;99.90;;;;;;4956494;29;20656;-87
2023/08/30 05:09:02;;;;;;;5.00;2.78;;;23.40;99.90;;;;;;4955469;29;20247;-88
2023/08/30 05:11:33;;;;;;;6.63;3.10;;;23.30;99.90;;;;;;4949756;29;20687;-90
2023/08/30 05:14:04;;;;;;;5.43;3.00;;;23.20;99.90;;;;;;4939269;29;20221;-90
2023/08/30 05:16:38;;;;;;;8.70;3.00;;;23.20;99.90;;;;;;4946549;29;20247;-89
2023/08/30 05:19:09;;;;;;;5.30;3.20;;;23.30;99.90;;;;;;4957968;29;20211;-90
2023/08/30 05:21:40;;;;;;;7.03;2.90;;;23.20;99.90;;;;;;4957594;29;20199;-92
2023/08/30 05:24:11;;;;;;;5.72;2.67;;;23.20;99.90;;;;;;4936004;29;20649;-90
2023/08/30 05:26:42;;;;;;;4.70;2.40;;;23.20;99.90;;;;;;4938173;29;20208;-90
2023/08/30 05:29:13;;;;;;;4.35;2.30;;;23.10;99.90;;;;;;4938833;29;20573;-92
2023/08/30 05:31:46;;;;;;;6.85;2.75;;;23.10;99.90;;;;;;4951740;29;20324;-90
2023/08/30 05:34:17;;;;;;;6.97;3.30;;;23.10;99.90;;;;;;4940340;28;20207;-89
2023/08/30 05:36:48;;;;;;;13.45;3.50;;;23.00;99.90;;;;;;4938947;29;20201;-89
2023/08/30 05:39:19;;;;;;;6.43;2.72;;;22.80;99.90;;;;;;4950079;28;20193;-89
2023/08/30 05:41:51;;;;;;;5.45;2.65;;;22.70;99.90;;;;;;4957547;28;20177;-80
2023/08/30 05:44:22;;;;;;;5.72;2.90;;;22.60;99.90;;;;;;4952887;29;20197;-91
2023/08/30 05:47:05;;;;;;;6.65;3.20;;;22.50;99.90;;;;;;4956483;28;20195;-90
2023/08/30 05:49:36;;;;;;;6.05;2.80;;;22.50;99.90;;;;;;4955844;29;20237;-90
2023/08/30 05:52:12;;;;;;;8.00;3.47;;;22.40;99.90;;;;;;4968262;28;20196;-89
2023/08/30 05:54:45;;;;;;;5.00;2.90;;;22.40;99.90;;;;;;4966787;28;20226;-90
2023/08/30 05:57:17;;;;;;;6.88;3.10;;;22.30;99.90;;;;;;4965497;29;20208;-90
2023/08/30 05:59:47;;;;;;;10.65;3.60;;;22.20;99.90;;;;;;4975796;28;20197;-91
2023/08/30 06:02:42;;;;;;;7.50;3.08;;;22.10;99.90;;;;;;4948297;28;20198;-91
2023/08/30 06:05:14;;;;;;;3.65;2.85;;;22.00;99.90;;;;;;4945462;28;20205;-91
2023/08/30 06:07:47;;;;;;;6.30;3.17;;;21.90;99.90;;;;;;4930270;28;20197;-90
2023/08/30 06:10:18;;;;;;;6.95;3.10;;;21.80;99.90;;;;;;4937420;29;20189;-91
2023/08/30 06:12:49;;;;;;;4.18;1.90;;;21.70;99.90;;;;;;4937203;29;20224;-90
2023/08/30 06:15:20;;;;;;;4.07;1.95;;;21.20;99.90;;;;;;4940144;29;20208;-89
2023/08/30 06:17:53;;;;;;;4.88;1.98;;;21.00;99.90;;;;;;4954131;29;20224;-93
2023/08/30 06:20:25;;;;;;;4.38;1.63;;;20.70;99.90;;;;;;4938661;29;20204;-93
2023/08/30 06:22:56;;;;;;;4.88;1.80;;;20.40;99.90;;;;;;4940205;29;20203;-94
2023/08/30 06:25:28;;;;;;;5.75;1.70;;;20.20;99.90;;;;;;4959685;28;20377;-91
2023/08/30 06:28:03;;;;;;;6.70;2.00;;;20.10;99.90;;;;;;4977431;28;20297;-92
2023/08/30 06:30:33;;;;;;;3.92;1.73;;;19.80;99.90;;;;;;4978187;28;20721;-91
2023/08/30 06:33:08;;;;;;;5.45;1.80;;;19.40;99.90;;;;;;4977687;28;20203;-90
2023/08/30 06:35:41;;;;;;;3.75;1.90;;;19.00;99.90;;;;;;4958051;28;20199;-91
2023/08/30 06:38:11;;;;;;;3.72;1.98;;;18.80;99.90;;;;;;4959905;29;20356;-87
2023/08/30 06:40:49;;;;;;;5.57;1.90;;;18.60;99.90;;;;;;4957106;29;20660;-90
2023/08/30 06:43:20;;;;;;;3.90;1.80;;;18.60;99.90;;;;;;4957188;29;20537;-90
2023/08/30 06:45:52;;;;;;;7.55;1.73;;;18.60;99.90;;;;;;4957213;29;20291;-90
2023/08/30 06:48:27;;;;;;;3.72;1.60;;;18.50;99.90;;;;;;4948932;29;20236;-89
2023/08/30 06:51:01;;;;;;;5.45;1.98;;;18.50;99.90;;;;;;4948786;28;20385;-88
2023/08/30 06:53:32;;;;;;;8.43;2.50;;;18.60;99.90;;;;;;4917422;29;20239;-88
2023/08/30 06:56:04;;;;;;;7.60;2.65;;;18.50;99.90;;;;;;4939788;29;20209;-89
2023/08/30 06:58:36;;;;;;;2.10;1.60;;;18.60;99.90;;;;;;4942328;29;20189;-90
2023/08/30 07:01:07;;;;;;;3.50;1.80;;;18.50;99.90;;;;;;4943264;29;20201;-91
2023/08/30 07:03:41;;;;;;;2.90;1.67;;;18.40;99.90;;;;;;4955142;28;20197;-89
2023/08/30 07:06:11;;;;;;;3.35;1.63;;;18.30;99.90;;;;;;4939617;29;20201;-92
2023/08/30 07:08:43;;;;;;;1.52;1.30;;;18.20;99.90;;;;;;4949153;29;20232;-89
2023/08/30 07:11:14;;;;;;;2.95;1.65;;;18.00;99.90;;;;;;4938790;29;20197;-90
2023/08/30 07:13:46;;;;;;;4.00;2.35;;;18.10;99.90;;;;;;4937607;29;20232;-88
2023/08/30 07:16:16;;;;;;;4.50;2.50;;;18.10;99.90;;;;;;4950097;29;20199;-90
2023/08/30 07:18:50;;;;;;;2.83;1.73;;;18.10;99.90;;;;;;4956843;29;20211;-89
2023/08/30 07:21:21;;;;;;;8.07;5.97;;;18.00;99.90;;;;;;4958070;29;20272;-87
2023/08/30 07:23:52;;;;;;;2.10;1.52;;;18.00;99.90;;;;;;4966493;29;20204;-85
2023/08/30 07:26:23;;;;;;;3.55;2.60;;;18.00;99.90;;;;;;4972862;28;20203;-89
2023/08/30 07:28:54;;;;;;;2.95;1.70;;;17.90;99.90;;;;;;4965935;29;20736;-90
2023/08/30 07:31:26;;;;;;;4.82;2.83;;;18.00;99.90;;;;;;4966564;29;20204;-92
2023/08/30 07:33:59;;;;;;;4.32;1.85;;;17.90;99.90;;;;;;4973232;28;20199;-90
2023/08/30 07:36:30;;;;;;;3.78;2.00;;;17.90;99.90;;;;;;4972604;28;20680;-87
2023/08/30 07:39:01;;;;;;;2.58;2.13;;;17.90;99.90;;;;;;4977498;28;20211;-90
2023/08/30 07:41:32;;;;;;;4.65;2.10;;;17.60;99.90;;;;;;4957902;29;20571;-88
2023/08/30 07:44:03;;;;;;;5.93;2.58;;;17.40;99.90;;;;;;4957158;29;20698;-92
2023/08/30 07:46:34;;;;;;;3.15;1.90;;;17.50;99.90;;;;;;4942785;29;20204;-89
2023/08/30 07:49:08;;;;;;;5.82;2.40;;;17.40;99.90;;;;;;4937402;29;20771;-90
2023/08/30 07:51:39;;;;;;;5.53;2.78;;;17.20;99.90;;;;;;4937249;29;20220;-90
2023/08/30 07:54:10;;;;;;;3.42;2.40;;;17.20;99.90;;;;;;4936620;29;20583;-90
2023/08/30 07:56:41;;;;;;;2.60;1.90;;;17.20;99.90;;;;;;4937771;29;20204;-90
2023/08/30 07:59:11;;;;;;;3.95;1.90;;;17.30;99.90;;;;;;4945531;29;20200;-90
2023/08/30 08:01:43;;;;;;;3.22;1.80;;;17.30;99.90;;;;;;4947091;29;20200;-90
2023/08/30 08:04:17;;;;;;;9.93;1.88;;;17.40;99.90;;;;;;4947860;28;20192;-89
2023/08/30 08:06:52;;;;;;;4.97;2.00;;;17.40;99.90;;;;;;4964102;28;20206;-92
2023/08/30 08:09:32;;;;;;;3.50;1.65;;;17.40;99.90;;;;;;4945758;29;20575;-92
2023/08/30 08:12:04;;;;;;;3.65;1.95;;;17.40;99.90;;;;;;4932234;29;20197;-91
2023/08/30 08:14:37;;;;;;;5.30;3.35;;;17.50;99.90;;;;;;4940961;29;20267;-94
2023/08/30 08:17:09;;;;;;;4.95;3.38;;;17.40;99.90;;;;;;4940822;29;20235;-93
2023/08/30 08:19:43;;;;;;;8.68;4.43;;;17.50;99.90;;;;;;4940179;29;20228;-92
2023/08/30 08:22:14;;;;;;;5.55;2.83;;;17.40;99.90;;;;;;4954448;29;20234;-91
2023/08/30 08:24:46;;;;;;;9.73;3.15;;;17.50;99.90;;;;;;4957889;29;20190;-90
2023/08/30 08:27:17;;;;;;;5.15;2.20;;;17.40;99.90;;;;;;4957719;29;20223;-90
2023/08/30 08:29:48;;;;;;;6.50;2.00;;;17.50;99.90;;;;;;4971043;28;20250;-91
2023/08/30 08:32:20;;;;;;;4.28;1.92;;;17.40;99.90;;;;;;4963826;28;20228;-90
2023/08/30 08:34:59;;;;;;;6.68;2.20;;;17.40;99.90;;;;;;4953917;28;20192;-92
2023/08/30 08:37:30;;;;;;;3.38;2.08;;;17.40;99.90;;;;;;4944267;29;20204;-89
2023/08/30 08:40:08;;;;;;;4.05;2.55;;;17.40;99.90;;;;;;4939014;29;20688;-95
2023/08/30 08:42:39;;;;;;;3.83;1.98;;;17.40;99.90;;;;;;4939514;29;20188;-93
2023/08/30 08:45:13;;;;;;;3.58;2.00;;;17.40;99.90;;;;;;4942455;29;20200;-94
2023/08/30 08:47:51;;;;;;;6.45;2.30;;;17.40;99.90;;;;;;4944881;29;20201;-93
2023/08/30 08:50:26;;;;;;;3.65;2.47;;;17.40;99.90;;;;;;4948882;29;20203;-93
2023/08/30 08:52:57;;;;;;;5.75;2.53;;;17.40;99.90;;;;;;4957971;28;20190;-88
2023/08/30 08:55:30;;;;;;;5.60;2.47;;;17.40;99.90;;;;;;4957850;28;20256;-95
2023/08/30 08:58:02;;;;;;;5.50;2.20;;;17.40;99.90;;;;;;4958948;28;20233;-92
2023/08/30 09:00:34;;;;;;;5.65;2.50;;;17.30;99.90;;;;;;4939995;28;20252;-87
2023/08/30 09:03:07;;;;;;;7.75;2.30;;;17.30;99.90;;;;;;4956525;28;20248;-90
2023/08/30 09:05:41;;;;;;;6.15;2.10;;;17.30;99.90;;;;;;4938520;28;20185;-94
2023/08/30 09:08:16;;;;;;;7.00;2.30;;;17.30;99.90;;;;;;4955244;28;20202;-91
2023/08/30 09:10:50;;;;;;;7.00;2.50;;;17.30;99.90;;;;;;4968804;28;20259;-91
2023/08/30 09:13:22;;;;;;;5.30;2.00;;;17.20;99.90;;;;;;4966101;29;20193;-92
2023/08/30 09:15:55;;;;;;;9.30;2.40;;;17.20;99.90;;;;;;4945683;29;20189;-92
2023/08/30 09:18:30;;;;;;;6.63;2.45;;;17.20;99.90;;;;;;4953309;29;20221;-95
2023/08/30 09:21:20;;;;;;;6.05;2.20;;;17.20;99.90;;;;;;4963435;29;20259;-94
2023/08/30 09:24:02;;;;;;;6.45;2.10;;;17.20;99.90;;;;;;4969447;28;20216;-90
2023/08/30 09:26:35;;;;;;;6.75;2.40;;;17.20;99.90;;;;;;4973463;29;20200;-94
2023/08/30 09:29:11;;;;;;;5.93;2.10;;;17.20;99.90;;;;;;4966088;29;20231;-92
2023/08/30 09:31:57;;;;;;;5.13;2.25;;;17.20;99.90;;;;;;4962704;29;20286;-91
2023/08/30 09:34:33;;;;;;;7.38;2.35;;;17.10;99.90;;;;;;4950369;29;20200;-95
2023/08/30 09:37:10;;;;;;;4.57;2.03;;;17.20;99.90;;;;;;4956337;29;20283;-95
2023/08/30 09:45:47;;;;;;;4.40;2.50;;;17.00;99.90;;;;;;4946373;29;20232;-95
2023/08/30 09:48:33;;;;;;;5.18;2.00;;;17.00;99.90;;;;;;4951432;29;20208;-92
2023/08/30 09:51:12;;;;;;;4.47;2.10;;;17.00;99.90;;;;;;4947792;29;20200;-93
2023/08/30 09:53:55;;;;;;;6.05;2.88;;;17.00;99.90;;;;;;4949220;28;20232;-92
2023/08/30 09:56:28;;;;;;;4.45;2.20;;;16.90;99.90;;;;;;4958387;29;20617;-92
2023/08/30 09:59:00;;;;;;;4.15;2.00;;;16.90;99.90;;;;;;4943815;28;20223;-94
2023/08/30 10:01:34;;;;;;;3.65;2.50;;;16.80;99.90;;;;;;4932256;29;20280;-94
2023/08/30 10:04:27;;;;;;;5.43;3.92;;;16.90;99.90;;;;;;4939783;29;20208;-94
2023/08/30 10:07:17;;;;;;;6.35;2.90;;;16.90;99.90;;;;;;4940217;29;20205;-94
2023/08/30 10:10:07;;;;;;;4.57;3.03;;;16.90;99.90;;;;;;4947439;29;20226;-93
2023/08/30 10:12:38;;;;;;;4.60;2.78;;;16.90;99.90;;;;;;4953529;29;20276;-92
2023/08/30 10:15:10;;;;;;;2.50;2.10;;;16.80;99.90;;;;;;4953631;29;20188;-95
2023/08/30 10:17:45;;;;;;;3.13;1.88;;;16.80;99.90;;;;;;4942656;29;20291;-92
2023/08/30 10:20:17;;;;;;;3.85;2.00;;;16.80;99.90;;;;;;4957210;29;20199;-91
2023/08/30 10:22:50;;;;;;;2.35;1.55;;;16.80;99.90;;;;;;4957306;29;20210;-90
2023/08/30 10:25:27;;;;;;;2.90;1.70;;;16.80;99.90;;;;;;4937670;29;20611;-89
2023/08/30 10:28:00;;;;;;;3.92;2.85;;;16.80;99.90;;;;;;4938588;29;20281;-92
2023/08/30 10:30:34;;;;;;;3.03;1.70;;;16.80;99.90;;;;;;4938285;29;20237;-92
2023/08/30 10:33:18;;;;;;;2.45;1.63;;;16.80;99.90;;;;;;4961350;29;20267;-93
2023/08/30 10:35:57;;;;;;;2.25;1.70;;;16.70;99.90;;;;;;4967133;29;20204;-88
2023/08/30 10:38:32;;;;;;;2.20;1.50;;;16.60;99.90;;;;;;4964736;29;20204;-92
2023/08/30 10:41:13;;;;;;;2.58;1.60;;;16.50;99.90;;;;;;4963167;29;20196;-92
2023/08/30 10:43:52;;;;;;;4.20;1.83;;;16.60;99.90;;;;;;4938298;29;20287;-90
2023/08/30 10:46:36;;;;;;;3.38;2.72;;;16.60;99.90;;;;;;4931172;29;20215;-93
2023/08/30 10:49:18;;;;;;;2.00;1.58;;;16.60;99.90;;;;;;4946848;29;20197;-92
2023/08/30 10:51:56;;;;;;;2.00;1.70;;;16.60;99.90;;;;;;4939394;29;20200;-92
2023/08/30 10:54:27;;;;;;;1.90;1.60;;;16.60;99.90;;;;;;4938792;29;20230;-94
2023/08/30 10:57:05;;;;;;;1.45;1.35;;;16.70;99.90;;;;;;4937810;29;20204;-93
2023/08/30 10:59:36;;;;;;;3.40;1.40;;;16.70;99.90;;;;;;4931474;29;20204;-95
2023/08/30 11:02:12;;;;;;;1.35;1.25;;;16.80;99.90;;;;;;4939585;29;20327;-95
2023/08/30 11:04:46;;;;;;;1.52;1.08;;;16.80;99.90;;;;;;4938086;29;20575;-95
2023/08/30 11:07:17;;;;;;;2.10;1.45;;;16.80;99.90;;;;;;4939462;29;20247;-96
2023/08/30 11:09:50;;;;;;;1.33;1.20;;;16.80;99.90;;;;;;4951837;28;20307;-96
2023/08/30 11:12:27;;;;;;;1.38;1.25;;;16.80;99.90;;;;;;4959387;29;20668;-95
2023/08/30 11:14:59;;;;;;;1.98;1.30;;;16.80;99.90;;;;;;4953798;28;20213;-96
2023/08/30 11:17:31;;;;;;;1.60;1.50;;;16.70;99.90;;;;;;4948695;29;20281;-94
2023/08/30 11:20:08;;;;;;;2.42;1.98;;;16.70;99.90;;;;;;4953953;29;20581;-96
2023/08/30 11:22:42;;;;;;;1.88;1.40;;;16.80;99.90;;;;;;4944976;29;20220;-95
2023/08/30 11:25:16;;;;;;;1.92;1.63;;;16.80;99.90;;;;;;4940200;29;20196;-95
2023/08/30 11:27:53;;;;;;;1.38;1.27;;;16.80;99.90;;;;;;4947826;29;20230;-95
2023/08/30 11:30:24;;;;;;;1.92;1.33;;;16.80;99.90;;;;;;4952372;29;20707;-93
2023/08/30 11:32:57;;;;;;;1.73;1.38;;;16.80;99.90;;;;;;4940585;29;20212;-94
2023/08/30 11:35:30;;;;;;;1.58;1.00;;;16.80;99.90;;;;;;4964587;28;20207;-94
2023/08/30 11:38:02;;;;;;;1.65;1.27;;;16.80;99.90;;;;;;4951763;28;20196;-94
2023/08/30 11:40:35;;;;;;;2.90;1.60;;;16.80;99.90;;;;;;4950893;29;20730;-93
2023/08/30 11:43:10;;;;;;;1.65;1.20;;;16.80;99.90;;;;;;4957019;29;20660;-93
2023/08/30 11:45:41;;;;;;;4.30;1.52;;;16.80;99.90;;;;;;4954582;29;20203;-94
2023/08/30 11:48:13;;;;;;;1.75;1.02;;;16.80;99.90;;;;;;4960188;29;20263;-92
2023/08/30 11:50:45;;;;;;;1.30;1.13;;;16.80;99.90;;;;;;4936282;29;20227;-93
2023/08/30 11:53:17;;;;;;;2.20;1.27;;;16.80;99.90;;;;;;4950199;28;20604;-94
2023/08/30 11:55:50;;;;;;;1.17;1.00;;;16.80;99.90;;;;;;4955914;29;20200;-93
2023/08/30 11:58:26;;;;;;;1.75;1.48;;;16.90;99.90;;;;;;4950697;29;20201;-93
2023/08/30 12:01:00;;;;;;;1.30;1.20;;;16.90;99.90;;;;;;4938144;29;20291;-94
2023/08/30 12:03:33;;;;;;;1.23;1.13;;;16.80;99.90;;;;;;4930441;29;20200;-93
2023/08/30 12:06:05;;;;;;;1.67;1.20;;;16.80;99.90;;;;;;4926638;29;20282;-94
2023/08/30 12:08:38;;;;;;;2.35;1.20;;;16.80;99.90;;;;;;4950886;29;20192;-95
2023/08/30 12:11:19;;;;;;;1.60;1.00;;;16.80;99.90;;;;;;4942327;29;20234;-93
2023/08/30 12:13:54;;;;;;;1.63;1.40;;;16.70;99.90;;;;;;4940781;28;20208;-94
2023/08/30 12:16:25;;;;;;;1.80;1.40;;;16.70;99.90;;;;;;4951087;29;20212;-94
2023/08/30 12:18:56;;;;;;;2.47;1.60;;;16.80;99.90;;;;;;4953899;28;20208;-88
2023/08/30 12:21:28;;;;;;;2.13;1.58;;;16.80;99.90;;;;;;4935164;29;20205;-88
2023/08/30 12:24:04;;;;;;;2.58;1.58;;;16.80;99.90;;;;;;4938095;29;20221;-94
2023/08/30 12:26:38;;;;;;;2.58;1.67;;;16.80;99.90;;;;;;4932846;29;20192;-94
2023/08/30 12:29:12;;;;;;;2.60;1.27;;;16.80;99.90;;;;;;4943503;29;20201;-93
2023/08/30 12:31:43;;;;;;;3.70;1.60;;;16.90;99.90;;;;;;4941791;29;20344;-92
2023/08/30 12:34:16;;;;;;;1.70;1.50;;;16.90;99.90;;;;;;4955031;28;20200;-91
2023/08/30 12:36:47;;;;;;;2.38;1.52;;;16.90;99.90;;;;;;4970895;28;20197;-94
2023/08/30 12:39:18;;;;;;;2.13;1.60;;;16.90;99.90;;;;;;4941403;29;20252;-93
2023/08/30 12:41:49;;;;;;;1.58;1.33;;;16.90;99.90;;;;;;4938184;29;20200;-95
2023/08/30 12:44:24;;;;;;;4.85;1.38;;;16.90;99.90;;;;;;4950174;29;20683;-95
2023/08/30 12:46:56;;;;;;;1.70;1.45;;;16.90;99.90;;;;;;4942066;29;20195;-93
2023/08/30 12:49:27;;;;;;;2.30;1.60;;;17.00;99.90;;;;;;4933579;29;20218;-92
2023/08/30 12:51:59;;;;;;;2.17;1.63;;;16.90;99.90;;;;;;4944665;29;20197;-95
2023/08/30 12:54:32;;;;;;;2.22;1.50;;;16.90;99.90;;;;;;4944010;29;20232;-93
2023/08/30 12:57:03;;;;;;;1.52;1.42;;;16.90;99.90;;;;;;4924948;29;20207;-93
2023/08/30 12:59:36;;;;;;;2.17;1.52;;;16.90;99.90;;;;;;4947060;29;20185;-94
2023/08/30 13:02:09;;;;;;;2.13;1.67;;;16.90;99.90;;;;;;4955081;29;20205;-96
2023/08/30 13:04:44;;;;;;;1.55;1.25;;;17.00;99.90;;;;;;4962682;28;20215;-94
2023/08/30 13:09:59;;;;;;;1.92;1.77;;;17.00;99.90;;;;;;4961277;29;20192;-96
2023/08/30 13:12:34;;;;;;;1.95;1.60;;;16.90;99.90;;;;;;4938135;29;20196;-95
2023/08/30 13:15:24;;;;;;;2.33;1.70;;;16.90;99.90;;;;;;4951901;29;20212;-95
2023/08/30 13:17:55;;;;;;;2.28;1.90;;;16.80;99.90;;;;;;4946723;29;20636;-95
2023/08/30 13:20:31;;;;;;;2.83;1.52;;;16.80;99.90;;;;;;4951924;29;20216;-94
2023/08/30 13:23:03;;;;;;;1.60;1.40;;;16.80;99.90;;;;;;4967171;28;20274;-92
2023/08/30 13:25:34;;;;;;;2.15;1.55;;;16.70;99.90;;;;;;4971428;29;20211;-93
2023/08/30 13:28:28;;;;;;;1.77;1.67;;;16.70;99.90;;;;;;4971645;29;20192;-93